LiveATC.Net - Listen to live air traffic control over the Internet!


ICAO: KCUB  IATA: CUB   Airport: Jim Hamilton L B Owens Airport
City: Columbia   State/Province: South Carolina
Country: United States   Continent: North America
KCUB METAR Weather: KCUB 232353Z AUTO 00000KT 10SM CLR 20/13 A2998 RMK AO2 SLP149 T02000133 10261 20200 53016
KCUB Flight Activity (FlightAware)
KCUB Airport Info   (iFlightPlanner)
KCUB VFR Sectional Chart   (iFlightPlanner) 
KCUB IFR Low Chart   (iFlightPlanner) 

KCUB CTAF
Feed Status: UP   Listeners: 1
Listen in your browser - HTML5 player (in browser, HTML5)
Click here to listen with your own player (launches your MP3 player)
Archive Access: KCUB CTAF
FacilityFrequency
Columbia CTAF123.075

NOTICE

Unauthorized use prohibited. See LiveATC.net Terms of Service


Airport/ARTCC Code
Frequency Search
(e.g., 124.400, 128.75)
Site-wide search
 


Browse Feeds
Top 50 Feeds
HF Oceanic Feeds
Coverage Map
Bad Weather Areas

LiveATC FAQ
Offer LiveATC feed
Contact LiveATC.net
Press Inquiries

LiveATC on iPhone
LiveATC on Android

Windows Phone
Windows 8/10

LiveATC Mobile
(Mobile browser)

ATC Audio Archives
Interesting Recordings

LiveATC Forums


Home Page
About LiveATC.net
Make a Donation
Terms of Use
Privacy Policy

Canadian Air Freqs

AIRMETs/SIGMETs

FAA Airport Status
NAS Status
Arrival Demand


Server Software By:
Icecast.org
Liquidsoap